Time;durP1;ratioP1;P1;durP2;ratioP2;P2;SDS_P1;SDS_P2;PMS_P1;PMS_P2;Temp;Humidity;BMP_temperature;BMP_pressure;BME280_temperature;BME280_humidity;BME280_pressure;Samples;Min_cycle;Max_cycle;Signal;HPM_P1;HPM_P2
2023/04/19 00:02:24;;;;;;;9.23;5.40;;;;;;;9.28;72.15;100544.88;4228310;28;20232;-64
2023/04/19 00:04:52;;;;;;;9.30;5.17;;;;;;;9.30;71.83;100535.63;4216974;28;20292;-63
2023/04/19 00:07:19;;;;;;;9.50;4.70;;;;;;;9.18;72.04;100524.06;4226276;28;20286;-65
2023/04/19 00:09:45;;;;;;;10.47;6.00;;;;;;;9.24;72.01;100530.78;4223000;28;20227;-64
2023/04/19 00:12:12;;;;;;;7.47;4.67;;;;;;;9.22;72.07;100531.91;4226312;28;22085;-62
2023/04/19 00:14:39;;;;;;;8.33;4.83;;;;;;;9.01;72.38;100533.66;4226127;28;20462;-64
2023/04/19 00:17:05;;;;;;;9.30;4.50;;;;;;;9.08;72.64;100531.28;4224002;28;21888;-63
2023/04/19 00:19:32;;;;;;;6.40;4.37;;;;;;;8.99;73.25;100532.94;4226106;28;20334;-65
2023/04/19 00:21:58;;;;;;;8.97;4.30;;;;;;;8.95;73.62;100536.91;4223168;28;20311;-63
2023/04/19 00:24:25;;;;;;;9.10;4.60;;;;;;;8.91;73.70;100531.91;4205982;28;20500;-62
2023/04/19 00:26:51;;;;;;;6.73;4.30;;;;;;;8.79;74.40;100523.03;4218373;28;21278;-64
2023/04/19 00:29:18;;;;;;;7.17;4.17;;;;;;;8.71;74.82;100523.72;4223803;28;20235;-63
2023/04/19 00:31:45;;;;;;;8.50;4.37;;;;;;;8.69;75.43;100533.78;4226343;28;21489;-62
2023/04/19 00:34:11;;;;;;;7.63;4.23;;;;;;;8.60;76.42;100531.88;4223521;28;20232;-63
2023/04/19 00:36:38;;;;;;;9.73;5.00;;;;;;;8.46;78.06;100528.50;4224729;28;21206;-63
2023/04/19 00:39:05;;;;;;;8.90;5.23;;;;;;;8.38;79.11;100526.44;4222714;28;20231;-63
2023/04/19 00:41:31;;;;;;;11.00;5.40;;;;;;;8.40;79.38;100516.38;4216345;28;20607;-63
2023/04/19 00:43:58;;;;;;;7.73;4.70;;;;;;;8.43;79.74;100523.34;4221598;28;20352;-64
2023/04/19 00:46:25;;;;;;;9.70;5.47;;;;;;;8.45;80.33;100518.69;4222975;28;21553;-64
2023/04/19 00:48:52;;;;;;;8.33;5.70;;;;;;;8.34;80.98;100514.22;4235665;28;20241;-65
2023/04/19 00:51:19;;;;;;;11.43;6.30;;;;;;;8.29;81.94;100511.06;4219282;28;20561;-62
2023/04/19 00:53:45;;;;;;;11.80;5.70;;;;;;;8.16;82.52;100503.16;4218524;28;22318;-62
2023/04/19 00:56:13;;;;;;;12.23;6.33;;;;;;;8.23;82.93;100501.66;4207728;28;20286;-63
2023/04/19 00:58:40;;;;;;;11.63;6.53;;;;;;;8.04;83.58;100496.13;4210527;28;21657;-62
2023/04/19 01:01:07;;;;;;;13.50;6.63;;;;;;;7.91;84.18;100494.44;4224636;28;21700;-64
2023/04/19 01:03:35;;;;;;;11.33;6.60;;;;;;;7.81;84.78;100493.50;4207827;28;20240;-62
2023/04/19 01:06:02;;;;;;;11.70;7.07;;;;;;;7.70;85.16;100482.75;4220894;28;20249;-65
2023/04/19 01:08:28;;;;;;;12.93;6.93;;;;;;;7.83;84.99;100486.13;4221153;28;22094;-64
2023/04/19 01:10:55;;;;;;;15.97;7.90;;;;;;;7.80;84.79;100488.22;4220908;28;22676;-66
2023/04/19 01:13:22;;;;;;;10.73;6.77;;;;;;;7.76;85.13;100476.84;4224133;28;21219;-63
2023/04/19 01:15:48;;;;;;;14.37;7.90;;;;;;;7.78;85.08;100478.44;4228318;28;20231;-63
2023/04/19 01:18:15;;;;;;;14.07;7.60;;;;;;;7.66;85.48;100466.00;4230779;28;25259;-62
2023/04/19 01:20:42;;;;;;;12.00;7.43;;;;;;;7.65;85.50;100469.66;4229752;28;20309;-63
2023/04/19 01:23:11;;;;;;;12.97;7.30;;;;;;;7.70;85.09;100467.47;4222357;28;20638;-62
2023/04/19 01:25:38;;;;;;;15.97;7.90;;;;;;;7.64;85.23;100465.25;4226509;28;20246;-62
2023/04/19 01:28:05;;;;;;;13.70;7.60;;;;;;;7.56;85.92;100457.81;4237039;28;20245;-63
2023/04/19 01:30:31;;;;;;;14.63;8.23;;;;;;;7.59;85.79;100462.94;4226109;28;21608;-62
2023/04/19 01:32:58;;;;;;;13.70;7.67;;;;;;;7.60;85.72;100455.72;4241615;28;21793;-65
2023/04/19 01:35:25;;;;;;;16.83;7.93;;;;;;;7.46;85.76;100454.16;4222768;28;20775;-61
2023/04/19 01:37:54;;;;;;;15.57;9.00;;;;;;;7.39;86.32;100452.97;4219650;28;20438;-62
2023/04/19 01:40:24;;;;;;;16.27;9.53;;;;;;;7.37;86.17;100450.41;4229866;28;20234;-61
2023/04/19 01:42:51;;;;;;;14.37;8.43;;;;;;;7.33;86.88;100454.31;4231765;28;23006;-61
2023/04/19 01:45:18;;;;;;;15.83;8.70;;;;;;;7.39;86.51;100450.28;4227831;28;20236;-65
2023/04/19 01:47:45;;;;;;;17.03;8.20;;;;;;;7.36;86.87;100454.09;4218824;28;20268;-62
2023/04/19 01:50:11;;;;;;;15.60;8.50;;;;;;;7.46;86.96;100454.16;4213623;28;20234;-62
2023/04/19 01:52:38;;;;;;;16.73;8.63;;;;;;;7.38;86.99;100451.25;4223405;28;20337;-62
2023/04/19 01:55:05;;;;;;;18.37;8.97;;;;;;;7.35;87.22;100444.28;4224370;28;20239;-64
2023/04/19 01:57:31;;;;;;;18.97;9.60;;;;;;;7.19;88.01;100450.09;4225874;28;20330;-64
2023/04/19 01:59:58;;;;;;;15.50;8.60;;;;;;;7.16;88.32;100436.88;4211514;28;20254;-64
2023/04/19 02:02:24;;;;;;;17.17;8.93;;;;;;;7.10;89.12;100437.38;4218435;28;20343;-62
2023/04/19 02:04:51;;;;;;;14.50;8.60;;;;;;;6.98;89.59;100445.47;4208831;28;21739;-64
2023/04/19 02:07:18;;;;;;;19.43;9.80;;;;;;;7.00;90.00;100442.66;4233275;28;20457;-66
2023/04/19 02:09:44;;;;;;;17.47;9.87;;;;;;;6.96;90.18;100443.84;4225314;28;20245;-66
2023/04/19 02:12:11;;;;;;;18.10;10.00;;;;;;;6.98;90.13;100439.22;4226849;28;20548;-66
2023/04/19 02:14:37;;;;;;;20.00;10.53;;;;;;;6.95;90.05;100436.75;4223429;28;20388;-62
2023/04/19 02:17:04;;;;;;;16.87;10.00;;;;;;;6.98;90.33;100442.78;4210245;28;20305;-62
2023/04/19 02:19:30;;;;;;;18.53;10.40;;;;;;;7.09;90.09;100444.59;4224278;28;20238;-67
2023/04/19 02:21:57;;;;;;;22.67;11.10;;;;;;;7.07;90.29;100434.91;4206396;28;20499;-64
2023/04/19 02:24:24;;;;;;;20.20;10.80;;;;;;;7.00;90.31;100437.28;4229083;28;20873;-62
2023/04/19 02:26:50;;;;;;;22.17;11.00;;;;;;;6.90;90.53;100434.47;4226430;28;23962;-63
2023/04/19 02:29:17;;;;;;;18.73;10.77;;;;;;;6.92;90.86;100432.50;4218086;28;21010;-63
2023/04/19 02:31:45;;;;;;;21.73;11.57;;;;;;;7.04;90.62;100435.19;4224213;28;20281;-65
2023/04/19 02:34:11;;;;;;;20.73;11.70;;;;;;;7.01;90.67;100430.03;4223290;28;21036;-65
2023/04/19 02:36:39;;;;;;;18.50;11.20;;;;;;;6.97;90.56;100430.31;4223213;28;21596;-64
2023/04/19 02:39:05;;;;;;;18.93;11.57;;;;;;;6.86;90.73;100419.53;4227006;28;20566;-62
2023/04/19 02:41:32;;;;;;;21.93;11.60;;;;;;;6.83;90.83;100422.50;4203583;28;23305;-62
2023/04/19 02:43:58;;;;;;;20.83;12.43;;;;;;;6.87;90.63;100415.88;4219800;28;21093;-63
2023/04/19 02:46:25;;;;;;;20.77;12.27;;;;;;;6.94;90.82;100414.38;4226766;28;21029;-64
2023/04/19 02:48:51;;;;;;;19.97;12.33;;;;;;;7.06;90.39;100407.16;4209445;28;20552;-64
2023/04/19 02:51:18;;;;;;;18.53;11.50;;;;;;;6.91;90.31;100406.56;4219720;28;20252;-67
2023/04/19 02:53:45;;;;;;;22.10;12.67;;;;;;;6.79;90.58;100394.09;4208213;28;20228;-62
2023/04/19 02:56:11;;;;;;;21.97;12.13;;;;;;;6.80;90.75;100402.03;4230451;28;20235;-64
2023/04/19 02:58:38;;;;;;;22.73;12.73;;;;;;;6.77;90.62;100396.94;4219053;28;21829;-64
2023/04/19 03:01:05;;;;;;;28.67;13.13;;;;;;;6.70;90.75;100392.16;4210007;28;20242;-65
2023/04/19 03:03:32;;;;;;;28.13;13.83;;;;;;;6.72;91.00;100395.56;4233037;28;20256;-65
2023/04/19 03:05:59;;;;;;;24.97;13.70;;;;;;;6.73;90.73;100390.06;4223623;28;20245;-64
2023/04/19 03:08:25;;;;;;;26.83;13.87;;;;;;;6.76;90.98;100389.00;4227311;28;22260;-64
2023/04/19 03:10:52;;;;;;;24.00;14.53;;;;;;;6.65;90.80;100379.06;4228630;28;22047;-63
2023/04/19 03:13:19;;;;;;;27.00;14.90;;;;;;;6.59;91.66;100390.31;4206073;28;21590;-62
2023/04/19 03:15:46;;;;;;;26.63;14.73;;;;;;;6.60;91.42;100389.34;4217959;28;20615;-64
2023/04/19 03:18:13;;;;;;;25.83;14.07;;;;;;;6.66;91.81;100392.41;4221762;28;22099;-62
2023/04/19 03:20:40;;;;;;;23.00;13.67;;;;;;;6.68;91.49;100386.91;4225025;28;20313;-63
2023/04/19 03:23:06;;;;;;;25.73;14.07;;;;;;;6.74;91.56;100381.03;4223554;28;20241;-64
2023/04/19 03:25:33;;;;;;;21.97;13.43;;;;;;;6.64;91.67;100386.28;4213906;28;20302;-63
2023/04/19 03:27:59;;;;;;;21.93;13.67;;;;;;;6.66;91.56;100389.72;4213417;28;20239;-66
2023/04/19 03:30:26;;;;;;;24.47;14.77;;;;;;;6.72;91.24;100380.28;4206382;28;21026;-64
2023/04/19 03:32:52;;;;;;;26.43;14.17;;;;;;;6.79;90.84;100372.56;4223544;28;22741;-67
2023/04/19 03:35:19;;;;;;;25.20;13.73;;;;;;;6.72;91.07;100376.75;4227921;28;22922;-65
2023/04/19 03:37:46;;;;;;;20.57;13.40;;;;;;;6.75;91.25;100371.97;4224219;28;20309;-63
2023/04/19 03:40:13;;;;;;;25.10;14.30;;;;;;;6.72;90.72;100371.38;4219369;28;20360;-65
2023/04/19 03:42:39;;;;;;;23.73;13.63;;;;;;;6.66;91.16;100362.81;4213376;28;22808;-65
2023/04/19 03:45:06;;;;;;;26.50;14.70;;;;;;;6.63;91.23;100367.59;4222529;28;20316;-64
2023/04/19 03:47:32;;;;;;;24.70;14.07;;;;;;;6.61;90.61;100361.47;4206974;28;21139;-66
2023/04/19 03:49:59;;;;;;;24.50;14.67;;;;;;;6.63;90.79;100360.38;4223400;28;20228;-65
2023/04/19 03:52:26;;;;;;;24.60;13.83;;;;;;;6.65;90.97;100354.84;4224017;28;20242;-62
2023/04/19 03:54:52;;;;;;;24.60;14.63;;;;;;;6.63;91.01;100357.69;4225963;28;20232;-62
2023/04/19 03:57:19;;;;;;;23.73;13.90;;;;;;;6.53;91.14;100354.03;4217593;28;20688;-64
2023/04/19 03:59:46;;;;;;;24.90;14.60;;;;;;;6.60;91.55;100349.00;4225963;28;20243;-65
2023/04/19 04:02:13;;;;;;;25.60;14.67;;;;;;;6.57;91.08;100344.72;4201468;28;23816;-64
2023/04/19 04:04:39;;;;;;;23.93;14.27;;;;;;;6.53;91.95;100345.97;4208714;28;20238;-62
2023/04/19 04:07:06;;;;;;;24.10;14.07;;;;;;;6.62;92.21;100347.91;4224336;28;20240;-65
2023/04/19 04:09:33;;;;;;;26.03;14.97;;;;;;;6.71;91.75;100340.94;4219994;28;21381;-62
2023/04/19 04:12:00;;;;;;;23.77;13.73;;;;;;;6.71;91.58;100340.94;4222725;28;20234;-64
2023/04/19 04:14:26;;;;;;;25.67;14.70;;;;;;;6.79;92.01;100342.97;4220481;28;20255;-62
2023/04/19 04:16:53;;;;;;;22.47;14.77;;;;;;;6.84;92.00;100340.75;4206257;28;21810;-62
2023/04/19 04:19:20;;;;;;;24.83;14.07;;;;;;;6.81;91.26;100349.94;4220291;28;26334;-63
2023/04/19 04:21:48;;;;;;;26.90;14.10;;;;;;;6.79;91.49;100334.91;4220252;28;20480;-63
2023/04/19 04:24:16;;;;;;;27.23;13.60;;;;;;;6.76;91.18;100337.88;4225498;28;20306;-66
2023/04/19 04:26:43;;;;;;;22.97;14.07;;;;;;;6.72;91.29;100344.47;4210889;28;20684;-66
2023/04/19 04:29:10;;;;;;;21.90;12.77;;;;;;;6.75;91.66;100341.53;4231028;28;20301;-61
2023/04/19 04:31:37;;;;;;;26.00;15.47;;;;;;;6.75;91.29;100342.38;4230449;28;20231;-63
2023/04/19 04:34:03;;;;;;;23.83;14.13;;;;;;;6.62;92.11;100341.66;4222381;28;20308;-63
2023/04/19 04:36:30;;;;;;;23.70;13.63;;;;;;;6.60;91.85;100343.63;4221709;28;21538;-63
2023/04/19 04:38:57;;;;;;;25.40;12.93;;;;;;;6.64;91.99;100340.56;4223257;28;20228;-65
2023/04/19 04:41:24;;;;;;;25.93;14.07;;;;;;;6.57;92.05;100342.03;4225985;28;20283;-65
2023/04/19 04:43:50;;;;;;;22.83;14.30;;;;;;;6.56;91.85;100339.50;4226388;28;20310;-64
2023/04/19 04:46:36;;;;;;;25.40;14.57;;;;;;;6.49;92.65;100341.81;4243798;28;20248;-64
2023/04/19 04:49:03;;;;;;;31.13;16.10;;;;;;;6.58;92.37;100337.50;4226614;28;20637;-65
2023/04/19 04:51:30;;;;;;;29.97;14.93;;;;;;;6.58;92.16;100338.38;4227544;28;20513;-63
2023/04/19 04:53:57;;;;;;;25.47;13.57;;;;;;;6.56;92.35;100337.63;4217432;28;20560;-67
2023/04/19 04:56:25;;;;;;;23.87;13.80;;;;;;;6.55;92.50;100337.78;4225883;28;20293;-64
2023/04/19 04:58:52;;;;;;;30.43;15.97;;;;;;;6.55;92.61;100343.16;4237415;28;21645;-65
2023/04/19 05:01:20;;;;;;;23.70;14.07;;;;;;;6.72;92.25;100331.00;4262784;28;20241;-66
2023/04/19 05:03:47;;;;;;;22.67;13.00;;;;;;;6.53;92.16;100329.84;4285801;28;20257;-66
2023/04/19 05:06:15;;;;;;;24.63;12.70;;;;;;;6.59;92.30;100328.47;4294400;28;22204;-65
2023/04/19 05:08:41;;;;;;;23.63;14.07;;;;;;;6.60;92.12;100322.09;4269444;28;20235;-67
2023/04/19 05:11:08;;;;;;;24.23;13.67;;;;;;;6.59;92.22;100323.09;4211963;28;22752;-64
2023/04/19 05:13:35;;;;;;;24.67;14.50;;;;;;;6.66;92.06;100327.84;4232504;28;23493;-64
2023/04/19 05:16:02;;;;;;;24.87;13.87;;;;;;;6.63;92.20;100327.25;4228814;28;20230;-65
2023/04/19 05:18:29;;;;;;;26.73;15.33;;;;;;;6.63;92.26;100319.19;4226937;28;22141;-66
2023/04/19 05:20:56;;;;;;;25.87;14.87;;;;;;;6.54;91.97;100318.06;4226781;28;20452;-63
2023/04/19 05:23:22;;;;;;;27.13;14.43;;;;;;;6.60;92.22;100314.03;4213571;28;22695;-62
2023/04/19 05:25:49;;;;;;;24.73;15.27;;;;;;;6.69;92.12;100304.34;4231411;28;20414;-62
2023/04/19 05:28:16;;;;;;;27.00;13.93;;;;;;;6.71;91.72;100314.03;4204053;28;20223;-65
2023/04/19 05:30:43;;;;;;;22.80;13.63;;;;;;;6.69;91.70;100315.97;4226152;28;20363;-63
2023/04/19 05:33:13;;;;;;;23.83;14.23;;;;;;;6.69;91.69;100317.81;4231847;28;20240;-62
2023/04/19 05:35:39;;;;;;;22.97;13.30;;;;;;;6.74;91.83;100313.75;4262328;28;20258;-64
2023/04/19 05:38:09;;;;;;;23.97;13.50;;;;;;;6.73;92.14;100316.59;4253179;28;20350;-67
2023/04/19 05:40:38;;;;;;;21.50;13.43;;;;;;;6.69;92.06;100320.50;4228248;28;21735;-66
2023/04/19 05:43:05;;;;;;;25.60;14.30;;;;;;;6.52;92.59;100322.75;4254172;28;20342;-62
2023/04/19 05:45:32;;;;;;;24.63;14.47;;;;;;;6.64;92.64;100327.13;4243115;28;21881;-64
2023/04/19 05:47:59;;;;;;;24.10;14.57;;;;;;;6.70;92.68;100322.19;4211274;28;21972;-62
2023/04/19 05:50:26;;;;;;;22.97;14.40;;;;;;;6.62;92.44;100315.63;4242140;28;20254;-65
2023/04/19 05:52:52;;;;;;;28.90;15.40;;;;;;;6.71;92.69;100311.34;4247015;28;25205;-63
2023/04/19 05:55:19;;;;;;;23.60;14.47;;;;;;;6.78;92.19;100315.25;4236786;28;20231;-64
2023/04/19 05:57:46;;;;;;;24.30;14.57;;;;;;;6.78;91.94;100314.38;4214388;28;20311;-61
2023/04/19 06:00:14;;;;;;;28.10;15.70;;;;;;;6.80;91.79;100307.03;4253430;28;22233;-67
2023/04/19 06:02:43;;;;;;;29.03;16.27;;;;;;;6.71;92.21;100305.97;4218211;28;20669;-65
2023/04/19 06:05:13;;;;;;;25.57;15.57;;;;;;;6.75;92.07;100309.25;4258719;28;23438;-61
2023/04/19 06:07:40;;;;;;;26.90;15.77;;;;;;;6.77;92.03;100307.28;4213593;28;20489;-63
2023/04/19 06:10:20;;;;;;;24.07;14.53;;;;;;;6.67;91.69;100301.78;4256210;28;20289;-65
2023/04/19 06:12:47;;;;;;;25.40;14.23;;;;;;;6.72;92.04;100301.41;4239581;28;20615;-64
2023/04/19 06:15:14;;;;;;;20.30;13.07;;;;;;;6.77;92.12;100297.38;4260153;28;21717;-61
2023/04/19 06:17:41;;;;;;;22.40;13.67;;;;;;;6.81;92.27;100301.50;4263179;28;20851;-63
2023/04/19 06:20:09;;;;;;;22.43;13.47;;;;;;;6.66;92.13;100294.69;4241160;28;20236;-66
2023/04/19 06:22:48;;;;;;;21.00;13.00;;;;;;;6.71;91.62;100294.34;4239296;28;20236;-64
2023/04/19 06:25:15;;;;;;;19.83;12.27;;;;;;;6.62;91.70;100288.72;4242541;28;20305;-64
2023/04/19 06:27:42;;;;;;;21.27;12.97;;;;;;;6.62;91.83;100290.56;4248108;28;20299;-66
2023/04/19 06:30:08;;;;;;;19.90;12.70;;;;;;;6.59;92.09;100280.91;4250651;28;20235;-67
2023/04/19 06:32:38;;;;;;;24.23;14.37;;;;;;;6.60;92.20;100290.69;4257297;28;24956;-67
2023/04/19 06:35:05;;;;;;;22.90;13.37;;;;;;;6.62;92.39;100288.72;4235287;28;22310;-67
2023/04/19 06:37:32;;;;;;;22.03;14.63;;;;;;;6.78;91.79;100295.53;4249092;28;20598;-66
2023/04/19 06:39:59;;;;;;;22.70;13.63;;;;;;;6.74;91.81;100291.41;4246714;28;20346;-64
2023/04/19 06:42:26;;;;;;;26.63;15.03;;;;;;;6.74;91.39;100292.25;4218162;28;20233;-63
2023/04/19 06:44:55;;;;;;;24.07;14.70;;;;;;;6.78;91.12;100298.22;4217001;28;21166;-66
2023/04/19 06:47:22;;;;;;;28.17;15.43;;;;;;;6.61;91.80;100291.53;4228200;28;22977;-66
2023/04/19 06:49:48;;;;;;;25.77;15.07;;;;;;;6.72;92.27;100294.19;4229168;28;20266;-65
2023/04/19 06:52:15;;;;;;;24.87;14.63;;;;;;;6.78;92.13;100292.84;4246424;28;20357;-63
2023/04/19 06:54:47;;;;;;;24.90;15.80;;;;;;;6.93;91.96;100298.81;4203358;28;21307;-65
2023/04/19 06:57:15;;;;;;;29.40;16.77;;;;;;;6.90;91.39;100299.03;4235778;28;20231;-65
2023/04/19 06:59:42;;;;;;;31.13;16.93;;;;;;;7.03;91.08;100299.72;4233881;28;22659;-63
2023/04/19 07:02:08;;;;;;;26.33;17.10;;;;;;;7.09;91.08;100306.44;4235229;28;26114;-64
2023/04/19 07:04:36;;;;;;;28.77;18.33;;;;;;;7.13;91.18;100308.75;4234356;28;21224;-66
2023/04/19 07:07:03;;;;;;;32.77;17.73;;;;;;;7.19;91.16;100307.41;4261512;28;20240;-64
2023/04/19 07:09:30;;;;;;;33.90;19.17;;;;;;;7.14;90.95;100305.09;4218946;28;20367;-67
2023/04/19 07:11:57;;;;;;;32.97;19.87;;;;;;;7.26;91.04;100308.59;4225358;28;20240;-70
2023/04/19 07:14:25;;;;;;;30.20;19.33;;;;;;;7.32;90.94;100307.22;4231873;28;22728;-66
2023/04/19 07:16:52;;;;;;;34.23;19.40;;;;;;;7.44;91.44;100303.47;4259669;28;20254;-66
2023/04/19 07:19:21;;;;;;;35.87;19.97;;;;;;;7.56;90.51;100306.97;4249494;28;20597;-64
2023/04/19 07:21:48;;;;;;;32.47;19.77;;;;;;;7.45;89.86;100294.41;4259253;28;20651;-65
2023/04/19 07:24:15;;;;;;;32.30;19.30;;;;;;;7.54;90.63;100300.84;4214227;28;20477;-65
2023/04/19 07:26:42;;;;;;;32.53;19.87;;;;;;;7.82;90.89;100289.53;4236723;28;20296;-64
2023/04/19 07:29:09;;;;;;;35.47;19.40;;;;;;;7.97;90.30;100284.66;4252214;28;20413;-66
2023/04/19 07:31:40;;;;;;;31.80;18.27;;;;;;;7.91;89.15;100288.75;4220794;28;20252;-65
2023/04/19 07:34:07;;;;;;;34.17;17.93;;;;;;;7.78;89.35;100295.19;4206909;28;20303;-65
2023/04/19 07:36:35;;;;;;;28.80;17.73;;;;;;;7.81;89.69;100294.09;4220910;28;20307;-65
2023/04/19 07:39:03;;;;;;;28.93;18.03;;;;;;;7.85;89.83;100289.28;4221159;28;21136;-67
2023/04/19 07:41:33;;;;;;;27.20;17.37;;;;;;;7.66;90.04;100298.94;4233781;28;20235;-67
2023/04/19 07:44:01;;;;;;;26.43;17.10;;;;;;;7.59;90.66;100287.84;4222984;28;20237;-65
2023/04/19 07:46:28;;;;;;;32.97;18.87;;;;;;;7.60;90.52;100288.69;4209179;28;20328;-67
2023/04/19 07:48:55;;;;;;;29.77;17.60;;;;;;;7.67;90.23;100294.41;4227630;28;20227;-66
2023/04/19 07:51:23;;;;;;;32.93;17.90;;;;;;;7.66;89.60;100292.72;4229331;28;20231;-66
2023/04/19 07:53:49;;;;;;;32.17;18.37;;;;;;;7.58;90.25;100296.94;4223702;28;20709;-64
2023/04/19 07:56:16;;;;;;;26.30;16.57;;;;;;;7.77;89.71;100295.31;4223267;28;21668;-68
2023/04/19 07:58:43;;;;;;;30.13;16.70;;;;;;;7.68;89.83;100298.81;4219969;28;20413;-65
2023/04/19 08:01:16;;;;;;;29.83;17.37;;;;;;;7.60;90.15;100303.00;4238777;28;20337;-65
2023/04/19 08:03:43;;;;;;;29.47;17.07;;;;;;;7.61;90.05;100303.88;4224009;28;20621;-67
2023/04/19 08:06:13;;;;;;;27.67;15.53;;;;;;;7.60;89.57;100300.31;4231317;28;20227;-65
2023/04/19 08:08:40;;;;;;;26.53;15.83;;;;;;;7.65;89.48;100307.16;4230386;28;22420;-66
2023/04/19 08:11:07;;;;;;;26.27;15.87;;;;;;;7.58;90.32;100298.75;4215350;28;20406;-67
2023/04/19 08:13:33;;;;;;;26.97;14.70;;;;;;;7.64;88.88;100297.38;4216804;28;20242;-66
2023/04/19 08:16:00;;;;;;;25.23;14.50;;;;;;;7.64;87.66;100297.38;4241481;28;20316;-63
2023/04/19 08:18:30;;;;;;;22.40;13.63;;;;;;;7.64;88.53;100303.59;4249764;28;20816;-64
2023/04/19 08:20:57;;;;;;;21.73;13.60;;;;;;;7.59;88.24;100295.91;4229367;28;22148;-64
2023/04/19 08:23:25;;;;;;;23.67;12.93;;;;;;;7.64;88.79;100298.22;4217489;28;20270;-64
2023/04/19 08:26:06;;;;;;;22.20;13.97;;;;;;;7.70;88.67;100307.63;4240671;28;20231;-67
2023/04/19 08:28:33;;;;;;;21.77;12.57;;;;;;;7.76;89.02;100302.56;4228643;28;20307;-64
2023/04/19 08:31:00;;;;;;;22.43;13.23;;;;;;;7.74;88.66;100301.84;4212335;28;20534;-63
2023/04/19 08:33:27;;;;;;;19.80;13.17;;;;;;;7.76;89.22;100299.88;4226751;28;20234;-65
2023/04/19 08:35:54;;;;;;;25.30;13.80;;;;;;;7.88;88.96;100300.66;4241138;28;20239;-64
2023/04/19 08:38:20;;;;;;;26.00;14.20;;;;;;;7.99;88.22;100288.06;4223115;28;20238;-65
2023/04/19 08:40:51;;;;;;;25.50;13.93;;;;;;;8.14;87.28;100302.03;4224552;28;23082;-64
2023/04/19 08:43:18;;;;;;;24.17;13.40;;;;;;;8.24;87.24;100294.84;4241565;28;20309;-64
2023/04/19 08:45:49;;;;;;;21.83;13.57;;;;;;;8.10;87.15;100290.69;4216981;28;21171;-65
2023/04/19 08:48:16;;;;;;;20.27;12.90;;;;;;;8.28;86.75;100298.97;4232208;28;20236;-63
2023/04/19 08:50:47;;;;;;;23.10;13.07;;;;;;;8.41;86.64;100298.75;4229085;28;20341;-66
2023/04/19 08:53:30;;;;;;;19.93;12.37;;;;;;;8.40;85.95;100299.75;4228745;28;20798;-66
2023/04/19 08:56:00;;;;;;;20.27;13.03;;;;;;;8.39;86.14;100298.88;4217431;28;25173;-63
2023/04/19 08:58:31;;;;;;;20.17;11.80;;;;;;;8.40;85.38;100302.44;4224966;28;20306;-65
2023/04/19 09:01:18;;;;;;;17.90;11.60;;;;;;;8.45;84.92;100304.72;4245380;28;20621;-64
2023/04/19 09:04:05;;;;;;;18.20;10.93;;;;;;;8.63;85.08;100305.78;4222633;28;21599;-65
2023/04/19 09:06:52;;;;;;;22.47;11.17;;;;;;;8.59;85.50;100301.69;4239139;28;21096;-64
2023/04/19 09:09:23;;;;;;;19.93;12.23;;;;;;;8.57;84.99;100298.25;4228945;28;21084;-64
2023/04/19 09:12:16;;;;;;;19.60;11.80;;;;;;;8.80;85.19;100308.81;4239445;28;20414;-64
2023/04/19 09:14:46;;;;;;;20.20;11.33;;;;;;;8.75;85.16;100311.09;4227924;28;20600;-65
2023/04/19 09:17:26;;;;;;;20.03;12.20;;;;;;;8.72;84.74;100306.81;4231504;28;20637;-65
2023/04/19 09:19:52;;;;;;;21.03;11.73;;;;;;;8.68;85.20;100308.06;4226116;28;20223;-63
2023/04/19 09:22:20;;;;;;;20.60;11.17;;;;;;;8.50;85.94;100316.81;4229797;28;20596;-66
2023/04/19 09:24:47;;;;;;;18.30;11.80;;;;;;;8.64;85.46;100320.16;4230372;28;20338;-65
2023/04/19 09:27:33;;;;;;;18.73;11.93;;;;;;;8.77;83.55;100309.94;4222819;28;20235;-65
2023/04/19 09:30:01;;;;;;;26.83;12.10;;;;;;;8.74;83.88;100309.38;4214043;28;20230;-66
2023/04/19 09:32:29;;;;;;;21.53;12.20;;;;;;;8.74;84.10;100318.31;4242363;28;20235;-65
2023/04/19 09:34:57;;;;;;;17.63;11.23;;;;;;;8.83;83.52;100316.66;4225413;28;20563;-64
2023/04/19 09:37:25;;;;;;;20.13;10.90;;;;;;;8.77;82.80;100309.94;4222132;28;21119;-63
2023/04/19 09:40:22;;;;;;;19.07;10.60;;;;;;;8.76;82.58;100310.09;4243356;28;20238;-65
2023/04/19 09:42:49;;;;;;;20.27;10.93;;;;;;;8.79;82.90;100313.38;4211450;28;25602;-64
2023/04/19 09:45:18;;;;;;;18.50;10.97;;;;;;;8.83;82.00;100314.78;4231932;28;20998;-63
2023/04/19 09:48:02;;;;;;;17.67;10.30;;;;;;;8.78;81.91;100313.50;4226715;28;25739;-65
2023/04/19 09:50:29;;;;;;;17.50;11.27;;;;;;;8.83;82.42;100314.78;4240773;28;20438;-64
2023/04/19 09:52:58;;;;;;;20.97;10.87;;;;;;;8.88;82.24;100308.97;4254914;28;20271;-63
2023/04/19 09:55:25;;;;;;;15.60;9.73;;;;;;;8.98;81.38;100319.78;4236419;28;20321;-64
2023/04/19 09:57:55;;;;;;;15.87;8.77;;;;;;;9.19;79.94;100312.41;4239127;28;20663;-64
2023/04/19 10:00:22;;;;;;;14.43;8.93;;;;;;;9.13;79.63;100310.28;4242637;28;21162;-67
2023/04/19 10:02:54;;;;;;;15.80;8.50;;;;;;;9.17;78.42;100313.56;4231288;28;21941;-63
2023/04/19 10:05:22;;;;;;;14.27;8.23;;;;;;;9.25;77.57;100315.56;4227917;28;20309;-66
2023/04/19 10:07:51;;;;;;;12.40;7.57;;;;;;;9.26;77.69;100317.25;4211491;28;20253;-63
2023/04/19 10:10:21;;;;;;;12.97;7.73;;;;;;;9.16;77.40;100323.50;4224913;28;20293;-64
2023/04/19 10:13:12;;;;;;;12.70;7.77;;;;;;;9.16;78.57;100322.63;4221387;28;20294;-63
2023/04/19 10:15:42;;;;;;;14.33;8.60;;;;;;;9.23;78.73;100314.84;4212347;28;20567;-63
2023/04/19 10:18:19;;;;;;;10.97;7.27;;;;;;;9.08;78.69;100326.06;4228933;28;21291;-65
2023/04/19 10:21:01;;;;;;;11.67;7.30;;;;;;;9.14;77.80;100309.28;4224093;28;20293;-62
2023/04/19 10:23:28;;;;;;;12.07;7.50;;;;;;;9.27;77.29;100313.53;4232917;28;20232;-63
2023/04/19 10:25:56;;;;;;;14.03;7.93;;;;;;;9.34;77.54;100318.25;4205244;28;20298;-63
2023/04/19 10:28:23;;;;;;;16.80;7.80;;;;;;;9.48;76.72;100311.53;4213928;28;20245;-64
2023/04/19 10:30:54;;;;;;;15.40;7.87;;;;;;;9.47;76.43;100314.41;4234226;28;21876;-63
2023/04/19 10:33:26;;;;;;;12.53;7.50;;;;;;;9.44;76.81;100318.25;4209219;28;20237;-62
2023/04/19 10:35:58;;;;;;;16.70;7.77;;;;;;;9.34;76.99;100323.66;4233374;28;20254;-63
2023/04/19 10:38:50;;;;;;;14.60;7.53;;;;;;;9.44;76.25;100328.22;4223240;28;20303;-65
2023/04/19 10:41:17;;;;;;;10.37;7.00;;;;;;;9.49;76.34;100328.63;4235082;28;20417;-64
2023/04/19 10:43:45;;;;;;;11.80;7.50;;;;;;;9.46;76.27;100329.78;4213031;28;20314;-62
2023/04/19 10:46:21;;;;;;;13.37;7.83;;;;;;;9.33;76.79;100330.06;4225672;28;23397;-63
2023/04/19 10:48:52;;;;;;;16.70;8.07;;;;;;;9.31;77.36;100320.38;4231259;28;22760;-64
2023/04/19 10:51:21;;;;;;;14.80;7.73;;;;;;;9.47;77.09;100330.59;4228544;28;20275;-63
2023/04/19 10:53:50;;;;;;;14.97;7.23;;;;;;;9.39;77.22;100325.94;4232335;28;20247;-63
2023/04/19 10:56:19;;;;;;;12.97;7.00;;;;;;;9.44;76.67;100328.22;4227497;28;20405;-62
2023/04/19 10:59:06;;;;;;;13.80;7.27;;;;;;;9.49;76.53;100334.03;4221688;28;21206;-63
2023/04/19 11:01:45;;;;;;;12.43;6.70;;;;;;;9.44;76.71;100336.31;4229130;28;20624;-63
2023/04/19 11:04:13;;;;;;;11.77;7.70;;;;;;;9.41;76.74;100334.72;4227632;28;20246;-62
2023/04/19 11:06:49;;;;;;;14.27;7.53;;;;;;;9.60;76.02;100333.88;4217574;28;20685;-63
2023/04/19 11:09:26;;;;;;;13.03;7.37;;;;;;;9.63;75.79;100335.44;4218380;28;20253;-64
2023/04/19 11:11:54;;;;;;;14.40;7.50;;;;;;;9.69;76.22;100337.56;4217458;28;20231;-65
2023/04/19 11:14:20;;;;;;;12.10;6.93;;;;;;;9.78;75.54;100336.69;4219374;28;20236;-63
2023/04/19 11:16:47;;;;;;;12.47;7.60;;;;;;;9.89;75.19;100340.22;4231927;28;20235;-63
2023/04/19 11:19:18;;;;;;;15.47;7.47;;;;;;;10.07;74.81;100340.34;4228547;28;20416;-64
2023/04/19 11:21:45;;;;;;;15.17;8.13;;;;;;;10.18;74.71;100334.75;4200342;28;25087;-65
2023/04/19 11:24:14;;;;;;;13.43;7.47;;;;;;;10.08;75.48;100336.63;4236318;28;20236;-67
2023/04/19 11:26:42;;;;;;;12.37;7.57;;;;;;;10.33;75.06;100331.56;4229042;28;20232;-62